createdAt,value
2023-04-21T00:00:42.839Z,1.10
2023-04-21T00:03:14.385Z,1.20
2023-04-21T00:05:45.261Z,1.10
2023-04-21T00:08:45.143Z,1.10
2023-04-21T00:12:01.523Z,1.05
2023-04-21T00:15:19.119Z,1.10
2023-04-21T00:18:09.844Z,1.10
2023-04-21T00:20:44.964Z,1.20
2023-04-21T00:23:34.329Z,1.20
2023-04-21T00:26:18.911Z,1.13
2023-04-21T00:29:19.532Z,1.10
2023-04-21T00:32:35.272Z,1.20
2023-04-21T00:35:50.303Z,1.10
2023-04-21T00:38:28.278Z,1.30
2023-04-21T00:41:09.200Z,1.20
2023-04-21T00:44:03.486Z,1.10
2023-04-21T00:46:32.843Z,1.20
2023-04-21T00:49:06.013Z,1.30
2023-04-21T00:51:58.810Z,1.02
2023-04-21T00:54:53.844Z,1.15
2023-04-21T00:58:08.659Z,1.10
2023-04-21T01:01:18.338Z,1.20
2023-04-21T01:04:46.094Z,1.30
2023-04-21T01:08:12.196Z,1.23
2023-04-21T01:11:38.658Z,1.20
2023-04-21T01:15:05.819Z,1.30
2023-04-21T01:18:32.049Z,1.20
2023-04-21T01:22:01.991Z,1.20
2023-04-21T01:25:36.007Z,1.20
2023-04-21T01:28:27.342Z,1.20
2023-04-21T01:31:50.734Z,1.10
2023-04-21T01:35:17.036Z,1.10
2023-04-21T01:38:21.604Z,1.10
2023-04-21T01:41:20.919Z,1.00
2023-04-21T01:44:29.701Z,1.20
2023-04-21T01:47:51.993Z,1.20
2023-04-21T01:51:17.186Z,1.20
2023-04-21T01:54:44.732Z,1.20
2023-04-21T01:58:11.125Z,1.20
2023-04-21T02:01:37.358Z,1.20
2023-04-21T02:05:04.750Z,1.10
2023-04-21T02:08:30.924Z,1.20
2023-04-21T02:12:01.963Z,1.10
2023-04-21T02:15:28.296Z,1.20
2023-04-21T02:18:55.124Z,1.20
2023-04-21T02:22:22.596Z,1.13
2023-04-21T02:25:48.780Z,1.10
2023-04-21T02:29:16.758Z,1.10
2023-04-21T02:32:43.677Z,1.10
2023-04-21T02:36:10.316Z,1.20
2023-04-21T02:39:31.360Z,1.20
2023-04-21T02:42:57.549Z,1.20
2023-04-21T02:46:25.300Z,1.20
2023-04-21T02:49:51.490Z,1.13
2023-04-21T02:53:17.687Z,1.30
2023-04-21T02:56:43.856Z,1.20
2023-04-21T03:00:11.818Z,1.30
2023-04-21T03:03:39.600Z,1.20
2023-04-21T03:07:06.133Z,1.10
2023-04-21T03:10:32.416Z,1.20
2023-04-21T03:13:58.601Z,1.20
2023-04-21T03:17:24.821Z,1.20
2023-04-21T03:20:52.624Z,1.20
2023-04-21T03:24:19.396Z,1.20
2023-04-21T03:27:45.627Z,1.20
2023-04-21T03:31:12.276Z,1.10
2023-04-21T03:34:38.945Z,1.27
2023-04-21T03:38:06.473Z,1.20
2023-04-21T03:41:32.791Z,1.20
2023-04-21T03:45:02.300Z,1.20
2023-04-21T03:48:28.838Z,1.20
2023-04-21T03:51:54.995Z,1.10
2023-04-21T03:55:22.550Z,1.10
2023-04-21T03:58:49.468Z,1.20
2023-04-21T04:02:15.898Z,1.10
2023-04-21T04:05:42.576Z,1.30
2023-04-21T04:09:09.108Z,1.20
2023-04-21T04:12:36.834Z,1.10
2023-04-21T04:15:08.588Z,1.20
2023-04-21T04:17:39.627Z,1.23
2023-04-21T04:20:46.576Z,1.25
2023-04-21T04:24:14.012Z,1.20
2023-04-21T04:27:39.231Z,1.20
2023-04-21T04:30:09.707Z,1.20
2023-04-21T04:33:36.188Z,1.30
2023-04-21T04:36:53.894Z,1.20
2023-04-21T04:40:20.691Z,1.25
2023-04-21T04:43:48.383Z,1.30
2023-04-21T04:47:14.916Z,1.20
2023-04-21T04:50:41.014Z,1.27
2023-04-21T04:53:28.672Z,1.30
2023-04-21T04:56:42.912Z,1.15
2023-04-21T05:00:12.693Z,1.30
2023-04-21T05:03:38.387Z,1.25
2023-04-21T05:07:06.267Z,1.30
2023-04-21T05:10:32.452Z,1.20
2023-04-21T05:13:58.664Z,1.20
2023-04-21T05:17:27.256Z,1.20
2023-04-21T05:20:53.743Z,1.30
2023-04-21T05:24:23.200Z,1.30
2023-04-21T05:27:48.322Z,1.30
2023-04-21T05:31:14.534Z,1.20
2023-04-21T05:34:42.256Z,1.10
2023-04-21T05:38:10.059Z,1.20
2023-04-21T05:41:36.314Z,1.30
2023-04-21T05:45:02.518Z,1.20
2023-04-21T05:48:29.258Z,1.02
2023-04-21T05:51:56.803Z,1.10
2023-04-21T05:55:23.117Z,1.20
2023-04-21T05:58:49.281Z,1.20
2023-04-21T06:02:15.523Z,1.10
2023-04-21T06:05:41.848Z,1.20
2023-04-21T06:09:09.410Z,1.10
2023-04-21T06:12:35.811Z,1.17
2023-04-21T06:16:02.104Z,1.13
2023-04-21T06:19:28.422Z,1.20
2023-04-21T06:22:56.063Z,1.30
2023-04-21T06:25:42.880Z,1.27
2023-04-21T06:29:09.102Z,1.23
2023-04-21T06:32:11.250Z,1.10
2023-04-21T06:35:37.535Z,1.20
2023-04-21T06:38:51.223Z,1.10
2023-04-21T06:42:18.898Z,1.20
2023-04-21T06:45:45.206Z,1.20
2023-04-21T06:49:10.169Z,1.00
2023-04-21T06:52:33.087Z,1.10
2023-04-21T06:55:59.260Z,1.00
2023-04-21T06:59:27.202Z,1.00
2023-04-21T07:02:53.588Z,1.10
2023-04-21T07:06:19.127Z,1.10
2023-04-21T07:09:47.211Z,1.10
2023-04-21T07:13:13.512Z,1.10
2023-04-21T07:16:41.070Z,1.15
2023-04-21T07:20:08.950Z,0.90
2023-04-21T07:23:35.235Z,1.10
2023-04-21T07:27:02.423Z,1.10
2023-04-21T07:30:29.373Z,1.00
2023-04-21T07:33:57.401Z,1.20
2023-04-21T07:37:24.604Z,1.10
2023-04-21T07:40:52.206Z,1.00
2023-04-21T07:44:18.870Z,1.10
2023-04-21T07:47:46.251Z,1.10
2023-04-21T07:51:15.648Z,1.02
2023-04-21T07:54:41.951Z,1.10
2023-04-21T07:58:10.031Z,1.10
2023-04-21T08:01:36.377Z,1.10
2023-04-21T08:05:02.645Z,1.10
2023-04-21T08:08:32.028Z,1.05
2023-04-21T08:11:58.511Z,1.10
2023-04-21T08:15:24.982Z,1.20
2023-04-21T08:18:51.224Z,1.20
2023-04-21T08:22:17.436Z,1.00
2023-04-21T08:25:44.993Z,1.10
2023-04-21T08:29:13.324Z,1.27
2023-04-21T08:32:39.643Z,1.00
2023-04-21T08:36:15.190Z,1.10
2023-04-21T08:39:51.341Z,1.20
2023-04-21T08:43:17.939Z,1.13
2023-04-21T08:46:45.045Z,1.02
2023-04-21T08:50:13.724Z,1.00
2023-04-21T08:53:40.379Z,1.13
2023-04-21T08:57:15.204Z,1.20
2023-04-21T09:00:42.651Z,1.20
2023-04-21T09:04:18.086Z,0.98
2023-04-21T09:07:44.459Z,1.00
2023-04-21T09:11:12.091Z,1.10
2023-04-21T09:14:38.257Z,1.10
2023-04-21T09:18:04.719Z,1.20
2023-04-21T09:21:32.408Z,1.23
2023-04-21T09:25:06.136Z,1.30
2023-04-21T09:28:35.506Z,1.20
2023-04-21T09:32:08.546Z,1.10
2023-04-21T09:36:01.700Z,1.10
2023-04-21T09:39:42.630Z,1.20
2023-04-21T09:43:14.028Z,1.25
2023-04-21T09:46:40.482Z,1.10
2023-04-21T09:53:34.244Z,1.30
2023-04-21T09:57:02.966Z,1.30
2023-04-21T10:00:32.420Z,1.30
2023-04-21T10:04:00.628Z,1.30
2023-04-21T10:07:27.045Z,1.25
2023-04-21T10:10:54.553Z,1.10
2023-04-21T10:14:21.681Z,1.25
2023-04-21T10:17:24.102Z,1.20
2023-04-21T10:20:52.272Z,1.30
2023-04-21T10:23:34.069Z,1.30
2023-04-21T10:26:35.833Z,1.20
2023-04-21T10:29:34.775Z,1.40
2023-04-21T10:32:32.165Z,1.40
2023-04-21T10:35:00.027Z,1.40
2023-04-21T10:37:27.703Z,1.30
2023-04-21T10:39:57.095Z,1.30
2023-04-21T10:42:29.438Z,1.30
2023-04-21T10:45:07.866Z,1.30
2023-04-21T10:47:42.812Z,1.20
2023-04-21T10:50:15.804Z,1.27
2023-04-21T10:52:48.436Z,1.20
2023-04-21T10:55:17.136Z,1.30
2023-04-21T10:57:46.186Z,1.40
2023-04-21T11:00:17.964Z,1.30
2023-04-21T11:05:15.590Z,1.40
2023-04-21T11:07:43.265Z,1.13
2023-04-21T11:10:12.394Z,1.30
2023-04-21T11:12:41.344Z,1.27
2023-04-21T11:15:11.648Z,1.30
2023-04-21T11:17:39.951Z,1.30
2023-04-21T11:20:10.200Z,1.35
2023-04-21T11:22:38.841Z,1.38
2023-04-21T11:25:07.829Z,1.30
2023-04-21T11:32:11.839Z,1.40
2023-04-21T11:34:48.955Z,1.27
2023-04-21T11:37:28.114Z,1.30
2023-04-21T11:39:59.498Z,1.40
2023-04-21T11:42:27.627Z,1.27
2023-04-21T11:44:55.687Z,1.30
2023-04-21T11:47:25.741Z,1.30
2023-04-21T11:49:56.221Z,1.30
2023-04-21T11:52:26.615Z,1.20
2023-04-21T11:54:59.318Z,1.40
2023-04-21T11:57:27.789Z,1.33
2023-04-21T11:59:55.886Z,1.40
2023-04-21T12:02:26.252Z,1.30
2023-04-21T12:05:05.113Z,1.30
2023-04-21T12:07:35.656Z,1.30
2023-04-21T12:10:03.953Z,1.40
2023-04-21T12:12:32.349Z,1.30
2023-04-21T12:15:05.169Z,1.30
2023-04-21T12:17:37.846Z,1.30
2023-04-21T12:20:07.187Z,1.27
2023-04-21T12:22:36.360Z,1.30
2023-04-21T12:25:04.220Z,1.30
2023-04-21T12:27:31.952Z,1.40
2023-04-21T12:30:00.385Z,1.38
2023-04-21T12:32:28.206Z,1.30
2023-04-21T12:34:56.122Z,1.40
2023-04-21T12:37:23.826Z,1.40
2023-04-21T12:39:52.908Z,1.40
2023-04-21T12:42:20.678Z,1.40
2023-04-21T12:44:48.362Z,1.40
2023-04-21T12:47:16.184Z,1.38
2023-04-21T12:49:44.342Z,1.30
2023-04-21T12:52:12.040Z,1.40
2023-04-21T12:54:39.767Z,1.38
2023-04-21T12:57:10.174Z,1.40
2023-04-21T12:59:37.941Z,1.30
2023-04-21T13:02:05.731Z,1.30
2023-04-21T13:04:33.817Z,1.30
2023-04-21T13:07:01.641Z,1.40
2023-04-21T13:09:29.465Z,1.30
2023-04-21T13:11:57.376Z,1.40
2023-04-21T13:14:26.826Z,1.33
2023-04-21T13:16:55.129Z,1.40
2023-04-21T13:19:24.942Z,1.30
2023-04-21T13:21:54.160Z,1.50
2023-04-21T13:24:22.213Z,1.40
2023-04-21T13:26:49.980Z,1.50
2023-04-21T13:29:17.782Z,1.30
2023-04-21T13:31:46.899Z,1.40
2023-04-21T13:34:14.601Z,1.38
2023-04-21T13:36:42.407Z,1.35
2023-04-21T13:39:10.887Z,1.50
2023-04-21T13:41:38.652Z,1.40
2023-04-21T13:44:06.601Z,1.50
2023-04-21T13:46:34.555Z,1.30
2023-04-21T13:49:03.811Z,1.40
2023-04-21T13:51:32.239Z,1.40
2023-04-21T13:54:00.032Z,1.50
2023-04-21T13:56:27.896Z,1.30
2023-04-21T13:58:55.873Z,1.30
2023-04-21T14:01:23.751Z,1.30
2023-04-21T14:03:51.944Z,1.30
2023-04-21T14:06:21.292Z,1.33
2023-04-21T14:08:48.996Z,1.40
2023-04-21T14:11:16.686Z,1.30
2023-04-21T14:13:55.983Z,1.40
2023-04-21T14:16:32.364Z,1.50
2023-04-21T14:19:00.259Z,1.50
2023-04-21T14:21:29.739Z,1.40
2023-04-21T14:23:57.567Z,1.48
2023-04-21T14:26:25.324Z,1.20
2023-04-21T14:28:53.008Z,1.30
2023-04-21T14:31:22.223Z,1.30
2023-04-21T14:33:50.240Z,1.30
2023-04-21T14:36:18.077Z,1.30
2023-04-21T14:38:47.235Z,1.40
2023-04-21T14:41:14.979Z,1.40
2023-04-21T14:43:42.728Z,1.40
2023-04-21T14:46:10.512Z,1.40
2023-04-21T14:48:38.400Z,1.33
2023-04-21T14:51:09.398Z,1.30
2023-04-21T14:53:37.238Z,1.50
2023-04-21T14:56:06.600Z,1.45
2023-04-21T14:58:35.028Z,1.25
2023-04-21T15:01:02.881Z,1.30
2023-04-21T15:03:30.682Z,1.40
2023-04-21T15:05:58.577Z,1.35
2023-04-21T15:08:27.511Z,1.30
2023-04-21T15:10:55.277Z,1.40
2023-04-21T15:13:24.612Z,1.40
2023-04-21T15:15:52.568Z,1.30
2023-04-21T15:18:20.854Z,1.30
2023-04-21T15:20:48.992Z,1.40
2023-04-21T15:23:17.155Z,1.40
2023-04-21T15:25:44.990Z,1.20
2023-04-21T15:28:13.095Z,1.33
2023-04-21T15:30:42.248Z,1.40
2023-04-21T15:33:11.521Z,1.40
2023-04-21T15:35:39.499Z,1.40
2023-04-21T15:38:07.428Z,1.40
2023-04-21T15:40:39.206Z,1.40
2023-04-21T15:43:11.521Z,1.20
2023-04-21T15:45:39.291Z,1.10
2023-04-21T15:48:08.529Z,1.30
2023-04-21T15:50:37.033Z,1.30
2023-04-21T15:53:05.546Z,1.17
2023-04-21T15:55:33.385Z,1.30
2023-04-21T15:58:01.166Z,1.20
2023-04-21T16:00:29.573Z,1.30
2023-04-21T16:02:57.389Z,1.30
2023-04-21T16:05:29.117Z,1.30
2023-04-21T16:07:57.175Z,1.20
2023-04-21T16:10:24.915Z,1.30
2023-04-21T16:12:52.723Z,1.10
2023-04-21T16:15:24.452Z,1.10
2023-04-21T16:17:52.931Z,1.20
2023-04-21T16:20:20.963Z,1.10
2023-04-21T16:22:51.241Z,1.30
2023-04-21T16:25:20.140Z,1.30
2023-04-21T16:27:47.996Z,1.30
2023-04-21T16:30:16.325Z,1.30
2023-04-21T16:32:44.146Z,1.20
2023-04-21T16:35:11.875Z,1.20
2023-04-21T16:37:40.121Z,1.20
2023-04-21T16:40:11.165Z,1.30
2023-04-21T16:42:39.080Z,1.30
2023-04-21T16:45:07.827Z,1.20
2023-04-21T16:47:41.328Z,1.10
2023-04-21T16:50:10.572Z,1.20
2023-04-21T16:52:38.335Z,1.30
2023-04-21T16:55:06.617Z,1.10
2023-04-21T16:57:35.987Z,1.20
2023-04-21T17:00:06.573Z,1.20
2023-04-21T17:02:34.697Z,1.10
2023-04-21T17:05:04.210Z,1.10
2023-04-21T17:07:32.451Z,1.10
2023-04-21T17:10:00.203Z,1.20
2023-04-21T17:12:27.992Z,1.10
2023-04-21T17:14:57.065Z,1.17
2023-04-21T17:17:25.109Z,1.30
2023-04-21T17:19:54.065Z,1.10
2023-04-21T17:22:21.824Z,1.20
2023-04-21T17:24:53.724Z,1.10
2023-04-21T17:27:22.433Z,1.20
2023-04-21T17:29:51.067Z,1.20
2023-04-21T17:32:20.597Z,1.27
2023-04-21T17:34:48.785Z,1.10
2023-04-21T17:37:16.537Z,1.13
2023-04-21T17:39:44.211Z,1.10
2023-04-21T17:42:11.917Z,1.15
2023-04-21T17:44:41.123Z,1.00
2023-04-21T17:47:09.046Z,1.10
2023-04-21T17:49:38.354Z,1.00
2023-04-21T17:52:06.492Z,1.00
2023-04-21T17:54:34.231Z,1.20
2023-04-21T17:57:02.565Z,1.13
2023-04-21T17:59:30.281Z,1.00
2023-04-21T18:01:58.879Z,1.20
2023-04-21T18:04:29.788Z,1.00
2023-04-21T18:06:59.601Z,1.10
2023-04-21T18:09:27.373Z,1.13
2023-04-21T18:11:55.121Z,1.00
2023-04-21T18:14:23.453Z,1.13
2023-04-21T18:16:51.235Z,1.00
2023-04-21T18:19:18.959Z,1.10
2023-04-21T18:21:46.750Z,1.00
2023-04-21T18:24:15.966Z,0.93
2023-04-21T18:26:44.046Z,1.00
2023-04-21T18:29:12.188Z,1.05
2023-04-21T18:31:40.240Z,1.10
2023-04-21T18:34:08.928Z,1.10
2023-04-21T18:36:38.532Z,1.00
2023-04-21T18:39:06.483Z,1.00
2023-04-21T18:41:35.674Z,1.10
2023-04-21T18:44:05.653Z,1.10
2023-04-21T18:46:33.425Z,0.90
2023-04-21T18:49:01.217Z,1.00
2023-04-21T18:51:31.216Z,1.08
2023-04-21T18:53:59.014Z,1.00
2023-04-21T18:56:27.564Z,1.10
2023-04-21T18:58:56.909Z,1.20
2023-04-21T19:01:24.641Z,1.10
2023-04-21T19:03:52.583Z,1.00
2023-04-21T19:06:20.392Z,0.90
2023-04-21T19:08:51.014Z,0.90
2023-04-21T19:11:18.765Z,0.90
2023-04-21T19:13:48.093Z,0.85
2023-04-21T19:16:17.276Z,1.00
2023-04-21T19:18:45.284Z,1.20
2023-04-21T19:21:13.695Z,1.00
2023-04-21T19:23:41.724Z,1.00
2023-04-21T19:26:11.805Z,0.90
2023-04-21T19:28:39.623Z,1.00
2023-04-21T19:31:07.940Z,0.90
2023-04-21T19:33:37.082Z,0.93
2023-04-21T19:36:05.556Z,1.10
2023-04-21T19:38:33.571Z,1.10
2023-04-21T19:41:01.300Z,1.00
2023-04-21T19:43:29.050Z,1.10
2023-04-21T19:45:58.440Z,1.00
2023-04-21T19:48:26.803Z,1.10
2023-04-21T19:50:55.969Z,1.00
2023-04-21T19:53:23.644Z,0.90
2023-04-21T19:55:52.791Z,1.00
2023-04-21T19:58:36.203Z,0.98
2023-04-21T20:01:06.478Z,1.00
2023-04-21T20:03:34.729Z,1.05
2023-04-21T20:06:04.829Z,1.00
2023-04-21T20:08:32.709Z,1.17
2023-04-21T20:11:00.827Z,1.13
2023-04-21T20:13:28.536Z,0.90
2023-04-21T20:15:57.085Z,1.00
2023-04-21T20:18:24.831Z,1.00
2023-04-21T20:20:52.701Z,1.10
2023-04-21T20:23:22.216Z,1.17
2023-04-21T20:25:49.949Z,1.13
2023-04-21T20:28:17.774Z,1.00
2023-04-21T20:30:45.674Z,1.10
2023-04-21T20:33:13.819Z,1.10
2023-04-21T20:35:43.866Z,1.10
2023-04-21T20:38:11.652Z,1.10
2023-04-21T20:40:40.733Z,1.02
2023-04-21T20:43:10.035Z,1.10
2023-04-21T20:45:37.909Z,1.10
2023-04-21T20:48:06.027Z,1.10
2023-04-21T20:50:33.872Z,1.10
2023-04-21T20:53:02.242Z,1.10
2023-04-21T20:55:29.975Z,1.02
2023-04-21T20:57:59.022Z,1.10
2023-04-21T21:00:26.802Z,1.13
2023-04-21T21:02:54.639Z,1.10
2023-04-21T21:05:22.470Z,1.10
2023-04-21T21:07:50.615Z,1.20
2023-04-21T21:10:18.670Z,1.20
2023-04-21T21:12:46.436Z,1.00
2023-04-21T21:15:15.738Z,1.20
2023-04-21T21:17:43.476Z,1.15
2023-04-21T21:20:12.079Z,1.20
2023-04-21T21:22:39.872Z,1.10
2023-04-21T21:25:08.128Z,1.00
2023-04-21T21:27:36.347Z,1.15
2023-04-21T21:30:06.249Z,1.10
2023-04-21T21:32:35.930Z,1.10
2023-04-21T21:35:03.771Z,1.10
2023-04-21T21:37:31.575Z,1.20
2023-04-21T21:39:59.292Z,1.10
2023-04-21T21:42:26.969Z,1.17
2023-04-21T21:44:55.020Z,1.00
2023-04-21T21:47:22.764Z,1.00
2023-04-21T21:49:54.911Z,1.10
2023-04-21T21:54:50.241Z,1.10
2023-04-21T21:57:18.218Z,1.20
2023-04-21T21:59:45.914Z,1.13
2023-04-21T22:02:13.658Z,1.15
2023-04-21T22:04:41.681Z,1.20
2023-04-21T22:07:10.966Z,1.17
2023-04-21T22:09:39.959Z,1.20
2023-04-21T22:12:08.256Z,1.20
2023-04-21T22:14:36.317Z,1.10
2023-04-21T22:17:04.332Z,1.10
2023-04-21T22:19:34.084Z,1.20
2023-04-21T22:22:01.832Z,1.20
2023-04-21T22:24:31.132Z,1.10
2023-04-21T22:26:58.837Z,1.20
2023-04-21T22:29:26.534Z,1.23
2023-04-21T22:31:54.407Z,1.20
2023-04-21T22:34:23.656Z,1.20
2023-04-21T22:36:53.390Z,1.10
2023-04-21T22:39:21.755Z,1.13
2023-04-21T22:41:53.109Z,1.27
2023-04-21T22:44:20.825Z,1.20
2023-04-21T22:46:48.548Z,1.20
2023-04-21T22:49:17.250Z,1.10
2023-04-21T22:51:44.940Z,1.20
2023-04-21T22:54:12.616Z,1.20
2023-04-21T22:56:40.316Z,1.05
2023-04-21T22:59:09.395Z,1.10
2023-04-21T23:01:37.117Z,1.20
2023-04-21T23:04:04.964Z,1.10
2023-04-21T23:06:32.749Z,1.10
2023-04-21T23:09:00.393Z,1.27
2023-04-21T23:11:28.233Z,1.20
2023-04-21T23:13:56.589Z,1.10
2023-04-21T23:16:26.124Z,1.20
2023-04-21T23:18:53.850Z,1.10
2023-04-21T23:21:21.744Z,1.20
2023-04-21T23:23:49.431Z,1.30
2023-04-21T23:26:17.282Z,1.20
2023-04-21T23:28:44.959Z,1.10
2023-04-21T23:31:12.731Z,1.20
2023-04-21T23:33:41.768Z,1.20
2023-04-21T23:36:09.616Z,1.20
2023-04-21T23:38:37.443Z,1.20
2023-04-21T23:41:05.373Z,1.20
2023-04-21T23:43:34.594Z,1.20
2023-04-21T23:46:02.342Z,1.30
2023-04-21T23:48:30.080Z,1.20
2023-04-21T23:50:59.175Z,1.30
2023-04-21T23:53:26.890Z,1.10
2023-04-21T23:55:54.614Z,1.20
2023-04-21T23:58:22.342Z,1.20
